createdAt,value
2022-08-20T00:00:18.215Z,17.50
2022-08-20T00:02:49.725Z,17.60
2022-08-20T00:05:25.058Z,17.70
2022-08-20T00:07:52.692Z,17.50
2022-08-20T00:10:20.544Z,17.40
2022-08-20T00:12:49.357Z,17.50
2022-08-20T00:15:19.336Z,18.30
2022-08-20T00:17:46.108Z,17.50
2022-08-20T00:20:13.911Z,17.70
2022-08-20T00:22:41.177Z,18.40
2022-08-20T00:25:10.371Z,17.80
2022-08-20T00:27:37.795Z,17.40
2022-08-20T00:30:08.355Z,17.90
2022-08-20T00:32:52.106Z,17.30
2022-08-20T00:35:23.147Z,17.40
2022-08-20T00:37:50.025Z,17.50
2022-08-20T00:40:22.382Z,17.60
2022-08-20T00:42:53.426Z,17.40
2022-08-20T00:45:20.964Z,17.40
2022-08-20T00:47:51.321Z,17.50
2022-08-20T00:50:22.981Z,17.40
2022-08-20T00:52:52.519Z,17.30
2022-08-20T00:55:22.738Z,17.40
2022-08-20T00:58:00.957Z,17.40
2022-08-20T01:00:49.858Z,17.40
2022-08-20T01:03:20.427Z,17.30
2022-08-20T01:05:50.459Z,17.30
2022-08-20T01:08:20.050Z,17.30
2022-08-20T01:10:49.954Z,17.40
2022-08-20T01:13:23.951Z,17.30
2022-08-20T01:15:55.005Z,17.50
2022-08-20T01:18:26.161Z,17.30
2022-08-20T01:20:57.205Z,17.60
2022-08-20T01:23:45.821Z,17.30
2022-08-20T01:26:30.412Z,17.20
2022-08-20T01:29:01.980Z,17.20
2022-08-20T01:31:32.804Z,17.20
2022-08-20T01:34:04.634Z,17.20
2022-08-20T01:36:44.225Z,17.20
2022-08-20T01:39:15.834Z,17.30
2022-08-20T01:41:51.789Z,17.20
2022-08-20T01:44:20.075Z,17.30
2022-08-20T01:46:49.506Z,17.40
2022-08-20T01:49:23.757Z,17.40
2022-08-20T01:51:55.145Z,17.30
2022-08-20T01:54:23.349Z,17.20
2022-08-20T01:57:07.020Z,17.20
2022-08-20T01:59:33.849Z,17.20
2022-08-20T02:02:02.291Z,17.40
2022-08-20T02:04:29.389Z,17.80
2022-08-20T02:07:01.526Z,17.80
2022-08-20T02:09:30.421Z,17.30
2022-08-20T02:11:58.187Z,17.30
2022-08-20T02:14:26.542Z,17.60
2022-08-20T02:16:54.913Z,17.70
2022-08-20T02:19:45.217Z,17.20
2022-08-20T02:22:27.179Z,17.10
2022-08-20T02:24:54.348Z,17.10
2022-08-20T02:27:23.778Z,17.70
2022-08-20T02:29:51.992Z,17.20
2022-08-20T02:32:32.036Z,17.60
2022-08-20T02:35:03.837Z,17.40
2022-08-20T02:37:31.056Z,17.20
2022-08-20T02:39:57.912Z,17.20
2022-08-20T02:42:25.223Z,17.20
2022-08-20T02:44:52.986Z,17.40
2022-08-20T02:47:19.780Z,17.50
2022-08-20T02:49:46.575Z,17.20
2022-08-20T02:52:13.485Z,17.10
2022-08-20T02:54:40.160Z,17.20
2022-08-20T02:57:13.406Z,17.20
2022-08-20T02:59:40.096Z,17.20
2022-08-20T03:02:06.818Z,17.00
2022-08-20T03:04:33.533Z,17.50
2022-08-20T03:07:00.361Z,17.10
2022-08-20T03:09:27.220Z,17.40
2022-08-20T03:11:54.386Z,17.10
2022-08-20T03:14:21.231Z,17.50
2022-08-20T03:16:47.973Z,17.00
2022-08-20T03:19:14.774Z,17.30
2022-08-20T03:21:41.745Z,17.40
2022-08-20T03:24:08.932Z,16.90
2022-08-20T03:26:37.381Z,17.10
2022-08-20T03:29:04.644Z,17.70
2022-08-20T03:31:32.533Z,17.70
2022-08-20T03:33:59.411Z,17.10
2022-08-20T03:36:29.003Z,17.00
2022-08-20T03:38:57.509Z,17.00
2022-08-20T03:41:24.721Z,17.10
2022-08-20T03:43:52.659Z,17.20
2022-08-20T03:46:23.289Z,17.00
2022-08-20T03:48:56.628Z,17.10
2022-08-20T03:51:29.606Z,17.50
2022-08-20T03:53:56.531Z,17.60
2022-08-20T03:56:23.280Z,16.90
2022-08-20T03:58:49.997Z,17.70
2022-08-20T04:01:44.354Z,17.70
2022-08-20T04:04:03.671Z,16.90
2022-08-20T04:06:30.485Z,16.90
2022-08-20T04:08:58.463Z,16.70
2022-08-20T04:11:25.283Z,16.90
2022-08-20T04:13:52.378Z,16.80
2022-08-20T04:16:19.475Z,17.10
2022-08-20T04:18:58.580Z,16.80
2022-08-20T04:21:33.601Z,17.30
2022-08-20T04:24:02.440Z,16.80
2022-08-20T04:26:30.167Z,17.50
2022-08-20T04:28:57.298Z,17.30
2022-08-20T04:31:33.609Z,16.70
2022-08-20T04:34:07.675Z,16.60
2022-08-20T04:36:35.414Z,16.70
2022-08-20T04:39:02.203Z,16.60
2022-08-20T04:41:29.129Z,16.70
2022-08-20T04:43:58.266Z,16.50
2022-08-20T04:46:28.370Z,17.40
2022-08-20T04:48:56.647Z,17.00
2022-08-20T04:51:24.588Z,17.00
2022-08-20T04:53:53.996Z,16.60
2022-08-20T04:56:32.191Z,16.60
2022-08-20T04:59:00.448Z,16.40
2022-08-20T05:01:28.254Z,16.50
2022-08-20T05:03:56.483Z,17.30
2022-08-20T05:06:28.484Z,16.60
2022-08-20T05:08:56.819Z,16.60
2022-08-20T05:11:35.763Z,16.70
2022-08-20T05:14:05.985Z,16.60
2022-08-20T05:16:38.089Z,16.70
2022-08-20T05:19:06.838Z,17.20
2022-08-20T05:21:33.994Z,16.90
2022-08-20T05:24:00.858Z,17.20
2022-08-20T05:26:27.536Z,16.80
2022-08-20T05:28:58.786Z,17.10
2022-08-20T05:31:31.271Z,16.90
2022-08-20T05:33:59.936Z,16.80
2022-08-20T05:36:26.975Z,17.50
2022-08-20T05:38:54.767Z,17.00
2022-08-20T05:41:29.310Z,17.00
2022-08-20T05:43:57.516Z,16.90
2022-08-20T05:46:24.367Z,17.00
2022-08-20T05:48:51.080Z,17.00
2022-08-20T05:51:17.874Z,17.00
2022-08-20T05:53:44.645Z,17.10
2022-08-20T05:56:11.456Z,16.90
2022-08-20T05:58:38.453Z,17.00
2022-08-20T06:01:05.988Z,16.90
2022-08-20T06:03:51.642Z,16.80
2022-08-20T06:06:44.288Z,16.80
2022-08-20T06:09:05.246Z,16.80
2022-08-20T06:11:36.872Z,17.30
2022-08-20T06:14:04.706Z,16.80
2022-08-20T06:16:32.122Z,16.80
2022-08-20T06:18:58.944Z,17.10
2022-08-20T06:21:26.305Z,17.10
2022-08-20T06:23:58.426Z,17.20
2022-08-20T06:26:30.451Z,17.20
2022-08-20T06:28:58.503Z,17.60
2022-08-20T06:31:25.385Z,17.30
2022-08-20T06:33:52.127Z,17.30
2022-08-20T06:36:19.790Z,17.30
2022-08-20T06:38:47.078Z,17.70
2022-08-20T06:41:14.316Z,17.40
2022-08-20T06:43:41.127Z,17.50
2022-08-20T06:46:08.268Z,17.50
2022-08-20T06:48:35.486Z,17.50
2022-08-20T06:51:02.284Z,17.50
2022-08-20T06:53:29.297Z,17.60
2022-08-20T06:55:59.279Z,17.80
2022-08-20T06:58:36.940Z,17.60
2022-08-20T07:01:09.374Z,17.70
2022-08-20T07:03:54.727Z,17.80
2022-08-20T07:06:25.882Z,18.00
2022-08-20T07:08:53.654Z,18.00
2022-08-20T07:11:26.576Z,18.10
2022-08-20T07:13:56.823Z,18.20
2022-08-20T07:16:23.930Z,18.20
2022-08-20T07:18:50.759Z,18.20
2022-08-20T07:21:17.584Z,18.40
2022-08-20T07:23:44.674Z,18.50
2022-08-20T07:26:12.904Z,18.50
2022-08-20T07:28:39.899Z,18.50
2022-08-20T07:31:25.111Z,18.70
2022-08-20T07:33:51.843Z,18.40
2022-08-20T07:36:20.429Z,18.50
2022-08-20T07:38:48.808Z,18.60
2022-08-20T07:41:15.576Z,18.90
2022-08-20T07:43:45.707Z,18.50
2022-08-20T07:46:20.664Z,18.70
2022-08-20T07:48:50.196Z,18.60
2022-08-20T07:51:20.534Z,18.80
2022-08-20T07:53:49.763Z,18.90
2022-08-20T07:56:22.728Z,19.00
2022-08-20T07:58:53.422Z,19.10
2022-08-20T08:01:25.736Z,19.20
2022-08-20T08:03:52.969Z,19.40
2022-08-20T08:06:29.067Z,19.40
2022-08-20T08:09:18.180Z,19.60
2022-08-20T08:11:51.908Z,19.50
2022-08-20T08:14:23.729Z,19.50
2022-08-20T08:16:52.889Z,19.60
2022-08-20T08:19:20.045Z,19.80
2022-08-20T08:21:47.002Z,19.40
2022-08-20T08:24:19.390Z,19.40
2022-08-20T08:26:50.068Z,19.80
2022-08-20T08:29:17.109Z,19.60
2022-08-20T08:31:45.143Z,19.70
2022-08-20T08:34:12.984Z,19.40
2022-08-20T08:36:39.905Z,19.60
2022-08-20T08:39:06.714Z,19.70
2022-08-20T08:41:52.569Z,19.70
2022-08-20T08:44:23.495Z,19.80
2022-08-20T08:46:57.433Z,20.00
2022-08-20T08:49:33.968Z,19.90
2022-08-20T08:52:36.787Z,19.80
2022-08-20T08:55:06.543Z,19.90
2022-08-20T08:57:33.802Z,19.90
2022-08-20T09:00:13.441Z,20.00
2022-08-20T09:02:42.567Z,19.90
2022-08-20T09:05:16.124Z,19.90
2022-08-20T09:07:47.442Z,20.00
2022-08-20T09:10:14.266Z,20.10
2022-08-20T09:12:45.701Z,20.20
2022-08-20T09:15:14.741Z,20.90
2022-08-20T09:17:41.691Z,20.40
2022-08-20T09:20:10.425Z,20.60
2022-08-20T09:22:37.241Z,20.50
2022-08-20T09:25:04.452Z,20.60
2022-08-20T09:27:32.106Z,20.50
2022-08-20T09:29:58.884Z,20.60
2022-08-20T09:32:26.046Z,20.70
2022-08-20T09:34:59.220Z,20.80
2022-08-20T09:37:29.294Z,20.90
2022-08-20T09:39:59.266Z,20.90
2022-08-20T09:42:31.010Z,21.10
2022-08-20T09:44:59.141Z,21.20
2022-08-20T09:47:26.602Z,21.10
2022-08-20T09:49:53.958Z,21.00
2022-08-20T09:52:25.781Z,20.80
2022-08-20T09:54:56.917Z,20.70
2022-08-20T09:57:23.917Z,20.60
2022-08-20T09:59:57.061Z,20.60
2022-08-20T10:02:24.967Z,20.80
2022-08-20T10:04:51.999Z,20.90
2022-08-20T10:07:19.397Z,21.00
2022-08-20T10:09:46.139Z,21.10
2022-08-20T10:12:13.450Z,21.10
2022-08-20T10:14:40.319Z,21.10
2022-08-20T10:17:07.269Z,21.20
2022-08-20T10:19:34.434Z,21.10
2022-08-20T10:22:01.288Z,21.10
2022-08-20T10:24:29.005Z,21.00
2022-08-20T10:26:58.653Z,21.10
2022-08-20T10:29:27.139Z,21.20
2022-08-20T10:31:54.956Z,21.20
2022-08-20T10:34:21.761Z,21.30
2022-08-20T10:36:48.857Z,21.40
2022-08-20T10:39:15.918Z,21.50
2022-08-20T10:41:42.665Z,21.50
2022-08-20T10:44:09.373Z,22.00
2022-08-20T10:46:36.341Z,21.80
2022-08-20T10:49:03.344Z,21.90
2022-08-20T10:51:32.376Z,21.80
2022-08-20T10:53:59.904Z,21.90
2022-08-20T10:56:26.747Z,21.80
2022-08-20T10:58:53.732Z,21.60
2022-08-20T11:01:31.433Z,21.60
2022-08-20T11:03:59.805Z,21.60
2022-08-20T11:06:26.553Z,21.60
2022-08-20T11:08:53.278Z,21.60
2022-08-20T11:11:23.638Z,22.00
2022-08-20T11:13:50.325Z,22.30
2022-08-20T11:16:17.058Z,22.40
2022-08-20T11:18:47.302Z,22.40
2022-08-20T11:21:14.846Z,22.30
2022-08-20T11:23:41.565Z,22.40
2022-08-20T11:26:08.617Z,22.40
2022-08-20T11:28:35.390Z,22.30
2022-08-20T11:31:02.397Z,22.30
2022-08-20T11:33:29.998Z,22.40
2022-08-20T11:35:57.069Z,22.20
2022-08-20T11:38:23.849Z,22.20
2022-08-20T11:40:50.579Z,22.00
2022-08-20T11:43:18.202Z,21.80
2022-08-20T11:45:48.458Z,21.80
2022-08-20T11:48:15.715Z,21.70
2022-08-20T11:50:42.524Z,21.60
2022-08-20T11:53:09.323Z,21.90
2022-08-20T11:55:37.283Z,21.50
2022-08-20T11:58:05.585Z,21.10
2022-08-20T12:00:34.048Z,20.70
2022-08-20T12:03:02.508Z,20.60
2022-08-20T12:05:32.112Z,20.50
2022-08-20T12:08:01.397Z,20.30
2022-08-20T12:10:28.999Z,20.50
2022-08-20T12:12:56.497Z,20.40
2022-08-20T12:15:24.191Z,20.40
2022-08-20T12:17:50.965Z,20.40
2022-08-20T12:20:17.857Z,20.50
2022-08-20T12:22:44.770Z,20.60
2022-08-20T12:25:13.190Z,20.80
2022-08-20T12:27:40.952Z,20.90
2022-08-20T12:30:12.391Z,21.20
2022-08-20T12:32:39.444Z,21.40
2022-08-20T12:35:08.189Z,21.30
2022-08-20T12:37:35.532Z,21.00
2022-08-20T12:40:05.666Z,21.10
2022-08-20T12:42:32.510Z,20.90
2022-08-20T12:45:00.298Z,20.90
2022-08-20T12:47:32.845Z,20.80
2022-08-20T12:50:31.757Z,20.70
2022-08-20T12:52:59.366Z,20.60
2022-08-20T12:55:26.249Z,20.40
2022-08-20T12:57:57.007Z,20.30
2022-08-20T13:00:33.248Z,20.20
2022-08-20T13:03:02.225Z,19.90
2022-08-20T13:05:30.191Z,20.00
2022-08-20T13:07:57.671Z,20.10
2022-08-20T13:10:33.982Z,20.10
2022-08-20T13:13:02.813Z,20.40
2022-08-20T13:15:31.856Z,20.60
2022-08-20T13:18:02.292Z,21.10
2022-08-20T13:20:30.995Z,21.00
2022-08-20T13:23:02.202Z,20.90
2022-08-20T13:25:28.935Z,21.10
2022-08-20T13:27:58.138Z,21.50
2022-08-20T13:30:25.758Z,21.50
2022-08-20T13:32:52.620Z,21.20
2022-08-20T13:35:19.789Z,21.40
2022-08-20T13:37:48.674Z,21.60
2022-08-20T13:40:15.715Z,21.80
2022-08-20T13:42:42.468Z,22.10
2022-08-20T13:45:09.855Z,22.60
2022-08-20T13:47:38.473Z,23.00
2022-08-20T13:50:17.829Z,23.50
2022-08-20T13:52:45.992Z,24.00
2022-08-20T13:55:16.919Z,24.00
2022-08-20T13:57:44.904Z,23.60
2022-08-20T14:00:16.020Z,23.20
2022-08-20T14:02:43.906Z,22.70
2022-08-20T14:05:12.079Z,22.30
2022-08-20T14:07:43.101Z,21.10
2022-08-20T14:10:14.249Z,20.00
2022-08-20T14:12:41.133Z,19.50
2022-08-20T14:15:11.792Z,18.90
2022-08-20T14:17:41.484Z,18.40
2022-08-20T14:20:17.141Z,18.60
2022-08-20T14:22:44.689Z,18.50
2022-08-20T14:25:15.871Z,18.50
2022-08-20T14:27:43.253Z,18.40
2022-08-20T14:30:15.764Z,18.70
2022-08-20T14:32:42.905Z,18.90
2022-08-20T14:35:10.866Z,19.30
2022-08-20T14:37:40.754Z,20.10
2022-08-20T14:40:11.281Z,20.70
2022-08-20T14:42:38.793Z,20.60
2022-08-20T14:45:07.364Z,20.80
2022-08-20T14:47:36.837Z,21.10
2022-08-20T14:50:11.727Z,21.00
2022-08-20T14:52:38.504Z,20.90
2022-08-20T14:55:07.764Z,20.70
2022-08-20T14:57:35.250Z,20.60
2022-08-20T15:00:02.146Z,20.60
2022-08-20T15:02:29.112Z,20.80
2022-08-20T15:04:56.597Z,20.90
2022-08-20T15:07:32.221Z,21.00
2022-08-20T15:10:00.689Z,21.00
2022-08-20T15:12:28.558Z,21.40
2022-08-20T15:14:55.303Z,21.50
2022-08-20T15:17:25.110Z,21.50
2022-08-20T15:19:52.523Z,21.40
2022-08-20T15:22:20.198Z,21.40
2022-08-20T15:24:47.199Z,22.50
2022-08-20T15:27:22.426Z,23.90
2022-08-20T15:29:51.089Z,24.40
2022-08-20T15:32:18.449Z,24.50
2022-08-20T15:34:45.748Z,24.10
2022-08-20T15:37:18.934Z,23.40
2022-08-20T15:39:46.762Z,22.20
2022-08-20T15:42:14.342Z,21.60
2022-08-20T15:44:42.728Z,21.30
2022-08-20T15:47:26.564Z,21.30
2022-08-20T15:50:08.052Z,21.10
2022-08-20T15:52:43.639Z,20.90
2022-08-20T15:55:13.734Z,20.60
2022-08-20T15:57:46.485Z,20.40
2022-08-20T16:00:20.019Z,20.20
2022-08-20T16:03:05.657Z,20.10
2022-08-20T16:06:02.895Z,20.10
2022-08-20T16:08:38.845Z,20.20
2022-08-20T16:11:27.548Z,20.30
2022-08-20T16:14:15.843Z,20.40
2022-08-20T16:17:01.891Z,20.60
2022-08-20T16:19:36.353Z,20.50
2022-08-20T16:22:04.331Z,20.60
2022-08-20T16:24:31.617Z,20.60
2022-08-20T16:27:14.480Z,20.60
2022-08-20T16:30:03.263Z,20.40
2022-08-20T16:32:48.603Z,20.50
2022-08-20T16:35:29.062Z,20.60
2022-08-20T16:37:59.968Z,20.50
2022-08-20T16:40:33.024Z,20.60
2022-08-20T16:43:04.745Z,20.40
2022-08-20T16:45:50.879Z,20.50
2022-08-20T16:48:18.747Z,20.50
2022-08-20T16:50:57.559Z,20.50
2022-08-20T16:53:25.699Z,20.60
2022-08-20T16:55:55.976Z,20.50
2022-08-20T16:58:22.830Z,20.40
2022-08-20T17:01:11.683Z,20.40
2022-08-20T17:03:40.771Z,20.40
2022-08-20T17:06:19.165Z,20.50
2022-08-20T17:08:49.814Z,20.50
2022-08-20T17:11:31.037Z,20.60
2022-08-20T17:14:05.803Z,20.60
2022-08-20T17:16:44.934Z,20.60
2022-08-20T17:19:17.197Z,20.60
2022-08-20T17:21:44.308Z,20.70
2022-08-20T17:24:19.417Z,20.80
2022-08-20T17:26:50.042Z,20.80
2022-08-20T17:29:23.970Z,20.70
2022-08-20T17:32:10.149Z,20.60
2022-08-20T17:34:49.943Z,20.40
2022-08-20T17:37:24.251Z,20.20
2022-08-20T17:40:17.312Z,20.20
2022-08-20T17:42:53.989Z,20.00
2022-08-20T17:45:45.625Z,20.10
2022-08-20T17:48:21.793Z,20.10
2022-08-20T17:50:50.006Z,20.10
2022-08-20T17:53:24.181Z,19.80
2022-08-20T17:56:00.830Z,19.80
2022-08-20T17:58:56.540Z,19.70
2022-08-20T18:01:25.947Z,19.60
2022-08-20T18:03:53.604Z,19.60
2022-08-20T18:06:44.378Z,19.70
2022-08-20T18:09:23.153Z,19.70
2022-08-20T18:12:03.326Z,19.70
2022-08-20T18:14:30.066Z,19.70
2022-08-20T18:16:56.806Z,19.70
2022-08-20T18:19:48.563Z,19.90
2022-08-20T18:22:58.177Z,19.70
2022-08-20T18:25:42.454Z,19.70
2022-08-20T18:28:19.227Z,19.70
2022-08-20T18:30:57.138Z,19.60
2022-08-20T18:33:39.051Z,19.60
2022-08-20T18:36:30.526Z,19.50
2022-08-20T18:39:02.590Z,19.40
2022-08-20T18:41:35.961Z,19.40
2022-08-20T18:44:05.280Z,19.20
2022-08-20T18:46:32.144Z,19.00
2022-08-20T18:49:05.965Z,19.00
2022-08-20T18:51:42.541Z,18.90
2022-08-20T18:54:21.572Z,18.90
2022-08-20T18:56:48.271Z,18.90
2022-08-20T18:59:18.703Z,19.00
2022-08-20T19:01:48.614Z,19.00
2022-08-20T19:04:31.922Z,18.90
2022-08-20T19:07:10.257Z,18.80
2022-08-20T19:09:52.219Z,18.80
2022-08-20T19:12:27.704Z,18.70
2022-08-20T19:15:07.839Z,18.80
2022-08-20T19:18:02.605Z,18.70
2022-08-20T19:20:32.595Z,18.80
2022-08-20T19:23:05.908Z,18.70
2022-08-20T19:25:36.690Z,18.70
2022-08-20T19:28:14.074Z,18.70
2022-08-20T19:30:41.671Z,18.60
2022-08-20T19:33:09.496Z,18.50
2022-08-20T19:35:36.974Z,18.40
2022-08-20T19:38:07.210Z,18.40
2022-08-20T19:40:39.037Z,18.10
2022-08-20T19:43:13.876Z,18.30
2022-08-20T19:45:48.732Z,18.30
2022-08-20T19:48:48.576Z,18.40
2022-08-20T19:51:29.862Z,18.30
2022-08-20T19:53:56.992Z,18.10
2022-08-20T19:56:27.209Z,18.10
2022-08-20T19:59:04.570Z,18.20
2022-08-20T20:01:32.294Z,18.20
2022-08-20T20:04:05.715Z,18.10
2022-08-20T20:06:37.114Z,18.00
2022-08-20T20:09:05.761Z,18.00
2022-08-20T20:11:45.813Z,18.00
2022-08-20T20:14:15.320Z,18.20
2022-08-20T20:16:43.164Z,18.00
2022-08-20T20:19:28.254Z,18.00
2022-08-20T20:22:19.113Z,18.10
2022-08-20T20:24:57.476Z,18.40
2022-08-20T20:27:26.736Z,18.10
2022-08-20T20:30:02.492Z,18.20
2022-08-20T20:32:30.528Z,18.10
2022-08-20T20:35:01.089Z,18.50
2022-08-20T20:37:50.869Z,18.00
2022-08-20T20:40:46.154Z,17.90
2022-08-20T20:43:30.490Z,17.90
2022-08-20T20:46:03.149Z,17.90
2022-08-20T20:48:39.509Z,17.80
2022-08-20T20:51:15.617Z,17.90
2022-08-20T20:53:54.342Z,17.70
2022-08-20T20:56:31.041Z,17.70
2022-08-20T20:59:01.263Z,17.60
2022-08-20T21:01:48.353Z,17.70
2022-08-20T21:04:17.268Z,17.70
2022-08-20T21:06:44.143Z,17.60
2022-08-20T21:09:10.877Z,17.40
2022-08-20T21:11:37.657Z,17.30
2022-08-20T21:14:04.708Z,17.20
2022-08-20T21:16:31.480Z,17.40
2022-08-20T21:18:58.582Z,17.40
2022-08-20T21:21:25.389Z,17.30
2022-08-20T21:23:52.236Z,17.70
2022-08-20T21:26:19.060Z,17.50
2022-08-20T21:28:45.999Z,17.40
2022-08-20T21:31:13.478Z,17.50
2022-08-20T21:33:40.180Z,17.50
2022-08-20T21:36:07.145Z,17.40
2022-08-20T21:38:33.882Z,17.40
2022-08-20T21:41:00.615Z,17.50
2022-08-20T21:43:32.817Z,17.40
2022-08-20T21:46:01.389Z,17.40
2022-08-20T21:48:29.106Z,17.30
2022-08-20T21:50:55.913Z,17.30
2022-08-20T21:53:23.145Z,17.50
2022-08-20T21:55:50.016Z,17.00
2022-08-20T21:58:17.812Z,16.90
2022-08-20T22:00:55.000Z,16.90
2022-08-20T22:03:29.096Z,16.90
2022-08-20T22:05:59.167Z,17.00
2022-08-20T22:08:28.240Z,17.30
2022-08-20T22:10:57.748Z,17.20
2022-08-20T22:13:28.345Z,17.20
2022-08-20T22:15:55.089Z,17.30
2022-08-20T22:18:22.080Z,17.30
2022-08-20T22:20:49.406Z,17.30
2022-08-20T22:23:16.132Z,17.30
2022-08-20T22:25:43.271Z,17.30
2022-08-20T22:28:10.003Z,17.50
2022-08-20T22:30:41.722Z,17.20
2022-08-20T22:33:12.805Z,17.40
2022-08-20T22:35:46.004Z,17.20
2022-08-20T22:38:13.410Z,17.20
2022-08-20T22:40:40.574Z,17.00
2022-08-20T22:43:07.332Z,17.00
2022-08-20T22:45:34.300Z,17.00
2022-08-20T22:48:01.435Z,17.10
2022-08-20T22:50:28.523Z,17.60
2022-08-20T22:52:55.367Z,16.90
2022-08-20T22:55:22.143Z,17.00
2022-08-20T22:57:48.915Z,16.80
2022-08-20T23:00:18.420Z,16.80
2022-08-20T23:02:50.892Z,16.70
2022-08-20T23:05:22.182Z,17.30
2022-08-20T23:07:53.806Z,16.80
2022-08-20T23:10:21.838Z,16.70
2022-08-20T23:12:48.867Z,16.70
2022-08-20T23:15:15.764Z,17.10
2022-08-20T23:17:42.613Z,16.80
2022-08-20T23:20:12.882Z,17.10
2022-08-20T23:22:39.600Z,16.70
2022-08-20T23:25:08.840Z,16.60
2022-08-20T23:27:45.160Z,16.60
2022-08-20T23:30:12.933Z,16.90
2022-08-20T23:32:39.724Z,16.50
2022-08-20T23:35:07.407Z,16.60
2022-08-20T23:37:38.333Z,16.40
2022-08-20T23:40:06.054Z,16.90
2022-08-20T23:42:32.905Z,16.50
2022-08-20T23:45:00.045Z,16.60
2022-08-20T23:47:27.885Z,16.70
2022-08-20T23:49:54.628Z,16.80
2022-08-20T23:52:21.392Z,16.40
2022-08-20T23:54:48.088Z,16.80
2022-08-20T23:57:15.101Z,16.40
2022-08-20T23:59:47.892Z,16.80
